sensor_id;sensor_type;location;lat;lon;timestamp;P1;durP1;ratioP1;P2;durP2;ratioP2
38611;SDS011;24368;52.156;20.788;2024-01-15T00:00:26;9.50;;;7.90;;
38611;SDS011;24368;52.156;20.788;2024-01-15T00:05:48;8.20;;;7.40;;
38611;SDS011;24368;52.156;20.788;2024-01-15T00:10:50;11.50;;;8.80;;
38611;SDS011;24368;52.156;20.788;2024-01-15T00:15:52;10.30;;;8.30;;
38611;SDS011;24368;52.156;20.788;2024-01-15T00:20:53;8.60;;;7.80;;
38611;SDS011;24368;52.156;20.788;2024-01-15T00:25:55;16.30;;;14.60;;
38611;SDS011;24368;52.156;20.788;2024-01-15T00:30:57;9.50;;;8.40;;
38611;SDS011;24368;52.156;20.788;2024-01-15T00:35:59;10.50;;;8.80;;
38611;SDS011;24368;52.156;20.788;2024-01-15T00:41:01;9.80;;;8.90;;
38611;SDS011;24368;52.156;20.788;2024-01-15T00:46:04;9.90;;;8.70;;
38611;SDS011;24368;52.156;20.788;2024-01-15T00:51:07;12.30;;;9.90;;
38611;SDS011;24368;52.156;20.788;2024-01-15T00:56:09;11.40;;;10.20;;
38611;SDS011;24368;52.156;20.788;2024-01-15T01:01:11;9.90;;;8.80;;
38611;SDS011;24368;52.156;20.788;2024-01-15T01:06:12;12.40;;;10.10;;
38611;SDS011;24368;52.156;20.788;2024-01-15T01:11:14;11.70;;;9.20;;
38611;SDS011;24368;52.156;20.788;2024-01-15T01:16:17;9.60;;;8.60;;
38611;SDS011;24368;52.156;20.788;2024-01-15T01:21:19;10.50;;;9.00;;
38611;SDS011;24368;52.156;20.788;2024-01-15T01:26:21;9.70;;;8.50;;
38611;SDS011;24368;52.156;20.788;2024-01-15T01:31:23;10.10;;;9.00;;
38611;SDS011;24368;52.156;20.788;2024-01-15T01:36:25;11.60;;;8.60;;
38611;SDS011;24368;52.156;20.788;2024-01-15T01:41:27;11.10;;;10.00;;
38611;SDS011;24368;52.156;20.788;2024-01-15T01:46:29;11.10;;;9.90;;
38611;SDS011;24368;52.156;20.788;2024-01-15T01:51:33;10.70;;;9.20;;
38611;SDS011;24368;52.156;20.788;2024-01-15T01:56:37;11.80;;;10.10;;
38611;SDS011;24368;52.156;20.788;2024-01-15T02:01:39;12.40;;;9.30;;
38611;SDS011;24368;52.156;20.788;2024-01-15T02:06:42;11.10;;;9.50;;
38611;SDS011;24368;52.156;20.788;2024-01-15T02:11:45;13.00;;;10.40;;
38611;SDS011;24368;52.156;20.788;2024-01-15T02:16:49;11.00;;;9.90;;
38611;SDS011;24368;52.156;20.788;2024-01-15T02:21:51;12.70;;;10.90;;
38611;SDS011;24368;52.156;20.788;2024-01-15T02:26:52;13.50;;;11.20;;
38611;SDS011;24368;52.156;20.788;2024-01-15T02:31:54;13.80;;;9.70;;
38611;SDS011;24368;52.156;20.788;2024-01-15T02:36:56;12.60;;;10.50;;
38611;SDS011;24368;52.156;20.788;2024-01-15T02:41:58;10.40;;;9.10;;
38611;SDS011;24368;52.156;20.788;2024-01-15T02:47:00;15.60;;;10.30;;
38611;SDS011;24368;52.156;20.788;2024-01-15T02:52:02;12.00;;;10.10;;
38611;SDS011;24368;52.156;20.788;2024-01-15T02:57:04;11.40;;;9.20;;
38611;SDS011;24368;52.156;20.788;2024-01-15T03:02:06;13.40;;;12.00;;
38611;SDS011;24368;52.156;20.788;2024-01-15T03:07:07;12.30;;;10.00;;
38611;SDS011;24368;52.156;20.788;2024-01-15T03:12:09;11.20;;;9.20;;
38611;SDS011;24368;52.156;20.788;2024-01-15T03:17:12;12.60;;;10.80;;
38611;SDS011;24368;52.156;20.788;2024-01-15T03:22:14;11.60;;;10.20;;
38611;SDS011;24368;52.156;20.788;2024-01-15T03:27:16;11.90;;;10.50;;
38611;SDS011;24368;52.156;20.788;2024-01-15T03:32:18;13.70;;;10.90;;
38611;SDS011;24368;52.156;20.788;2024-01-15T03:37:21;12.40;;;10.70;;
38611;SDS011;24368;52.156;20.788;2024-01-15T03:42:22;12.00;;;10.20;;
38611;SDS011;24368;52.156;20.788;2024-01-15T03:47:24;12.00;;;10.20;;
38611;SDS011;24368;52.156;20.788;2024-01-15T03:52:27;11.10;;;9.50;;
38611;SDS011;24368;52.156;20.788;2024-01-15T03:57:29;10.40;;;9.20;;
38611;SDS011;24368;52.156;20.788;2024-01-15T04:02:31;11.30;;;10.00;;
38611;SDS011;24368;52.156;20.788;2024-01-15T04:07:32;12.60;;;10.40;;
38611;SDS011;24368;52.156;20.788;2024-01-15T04:12:34;10.30;;;8.30;;
38611;SDS011;24368;52.156;20.788;2024-01-15T04:17:36;10.30;;;9.10;;
38611;SDS011;24368;52.156;20.788;2024-01-15T04:22:38;10.70;;;8.80;;
38611;SDS011;24368;52.156;20.788;2024-01-15T04:27:39;12.10;;;9.40;;
38611;SDS011;24368;52.156;20.788;2024-01-15T04:32:41;9.30;;;7.90;;
38611;SDS011;24368;52.156;20.788;2024-01-15T04:37:43;9.30;;;8.20;;
38611;SDS011;24368;52.156;20.788;2024-01-15T04:42:44;8.40;;;7.30;;
38611;SDS011;24368;52.156;20.788;2024-01-15T04:47:49;7.60;;;6.80;;
38611;SDS011;24368;52.156;20.788;2024-01-15T04:52:51;8.90;;;7.40;;
38611;SDS011;24368;52.156;20.788;2024-01-15T04:57:53;9.30;;;7.70;;
38611;SDS011;24368;52.156;20.788;2024-01-15T05:02:54;8.90;;;8.00;;
38611;SDS011;24368;52.156;20.788;2024-01-15T05:07:57;9.90;;;8.00;;
38611;SDS011;24368;52.156;20.788;2024-01-15T05:12:59;10.60;;;7.90;;
38611;SDS011;24368;52.156;20.788;2024-01-15T05:18:01;9.90;;;7.70;;
38611;SDS011;24368;52.156;20.788;2024-01-15T05:23:02;9.40;;;7.60;;
38611;SDS011;24368;52.156;20.788;2024-01-15T05:28:05;9.30;;;7.40;;
38611;SDS011;24368;52.156;20.788;2024-01-15T05:33:07;9.70;;;8.00;;
38611;SDS011;24368;52.156;20.788;2024-01-15T05:38:09;10.20;;;8.70;;
38611;SDS011;24368;52.156;20.788;2024-01-15T05:43:11;8.00;;;6.90;;
38611;SDS011;24368;52.156;20.788;2024-01-15T05:48:12;9.00;;;7.10;;
38611;SDS011;24368;52.156;20.788;2024-01-15T05:53:15;8.20;;;7.40;;
38611;SDS011;24368;52.156;20.788;2024-01-15T05:58:16;8.70;;;7.30;;
38611;SDS011;24368;52.156;20.788;2024-01-15T06:03:18;9.00;;;7.80;;
38611;SDS011;24368;52.156;20.788;2024-01-15T06:08:20;8.70;;;7.10;;
38611;SDS011;24368;52.156;20.788;2024-01-15T06:13:22;9.30;;;8.10;;
38611;SDS011;24368;52.156;20.788;2024-01-15T06:18:24;8.80;;;7.90;;
38611;SDS011;24368;52.156;20.788;2024-01-15T06:23:25;8.40;;;7.40;;
38611;SDS011;24368;52.156;20.788;2024-01-15T06:28:27;10.60;;;8.40;;
38611;SDS011;24368;52.156;20.788;2024-01-15T06:33:29;8.70;;;7.80;;
38611;SDS011;24368;52.156;20.788;2024-01-15T06:38:31;8.90;;;7.40;;
38611;SDS011;24368;52.156;20.788;2024-01-15T06:43:32;11.50;;;9.20;;
38611;SDS011;24368;52.156;20.788;2024-01-15T06:48:34;12.10;;;9.50;;
38611;SDS011;24368;52.156;20.788;2024-01-15T06:53:36;8.80;;;7.90;;
38611;SDS011;24368;52.156;20.788;2024-01-15T06:58:39;8.80;;;7.50;;
38611;SDS011;24368;52.156;20.788;2024-01-15T07:03:41;8.20;;;7.40;;
38611;SDS011;24368;52.156;20.788;2024-01-15T07:08:43;9.00;;;8.10;;
38611;SDS011;24368;52.156;20.788;2024-01-15T07:13:45;9.80;;;8.70;;
38611;SDS011;24368;52.156;20.788;2024-01-15T07:18:47;9.00;;;7.80;;
38611;SDS011;24368;52.156;20.788;2024-01-15T07:23:49;9.10;;;7.90;;
38611;SDS011;24368;52.156;20.788;2024-01-15T07:28:50;10.80;;;8.30;;
38611;SDS011;24368;52.156;20.788;2024-01-15T07:33:52;10.30;;;9.20;;
38611;SDS011;24368;52.156;20.788;2024-01-15T07:38:54;13.30;;;10.80;;
38611;SDS011;24368;52.156;20.788;2024-01-15T07:43:56;10.40;;;8.60;;
38611;SDS011;24368;52.156;20.788;2024-01-15T07:48:58;9.20;;;8.00;;
38611;SDS011;24368;52.156;20.788;2024-01-15T07:54:00;8.40;;;6.80;;
38611;SDS011;24368;52.156;20.788;2024-01-15T07:59:01;9.90;;;8.50;;
38611;SDS011;24368;52.156;20.788;2024-01-15T08:04:03;7.50;;;6.50;;
38611;SDS011;24368;52.156;20.788;2024-01-15T08:09:05;8.40;;;6.50;;
38611;SDS011;24368;52.156;20.788;2024-01-15T08:14:07;8.90;;;7.20;;
38611;SDS011;24368;52.156;20.788;2024-01-15T08:19:10;8.40;;;7.60;;
38611;SDS011;24368;52.156;20.788;2024-01-15T08:24:12;10.00;;;8.80;;
38611;SDS011;24368;52.156;20.788;2024-01-15T08:29:14;7.60;;;6.90;;
38611;SDS011;24368;52.156;20.788;2024-01-15T08:34:15;8.40;;;7.50;;
38611;SDS011;24368;52.156;20.788;2024-01-15T08:39:17;7.70;;;6.60;;
38611;SDS011;24368;52.156;20.788;2024-01-15T08:44:20;10.20;;;8.50;;
38611;SDS011;24368;52.156;20.788;2024-01-15T08:49:22;10.40;;;8.40;;
38611;SDS011;24368;52.156;20.788;2024-01-15T08:54:24;11.50;;;9.10;;
38611;SDS011;24368;52.156;20.788;2024-01-15T08:59:25;7.90;;;7.10;;
38611;SDS011;24368;52.156;20.788;2024-01-15T09:04:27;7.80;;;6.70;;
38611;SDS011;24368;52.156;20.788;2024-01-15T09:09:29;5.90;;;4.90;;
38611;SDS011;24368;52.156;20.788;2024-01-15T09:14:31;9.30;;;6.80;;
38611;SDS011;24368;52.156;20.788;2024-01-15T09:19:33;8.80;;;6.00;;
38611;SDS011;24368;52.156;20.788;2024-01-15T09:24:35;8.60;;;5.50;;
38611;SDS011;24368;52.156;20.788;2024-01-15T09:29:37;5.20;;;4.50;;
38611;SDS011;24368;52.156;20.788;2024-01-15T09:34:41;7.70;;;5.00;;
38611;SDS011;24368;52.156;20.788;2024-01-15T09:39:43;7.30;;;4.60;;
38611;SDS011;24368;52.156;20.788;2024-01-15T09:44:45;6.10;;;4.70;;
38611;SDS011;24368;52.156;20.788;2024-01-15T09:49:47;7.00;;;4.00;;
38611;SDS011;24368;52.156;20.788;2024-01-15T09:54:50;7.20;;;5.40;;
38611;SDS011;24368;52.156;20.788;2024-01-15T09:59:53;8.50;;;4.00;;
38611;SDS011;24368;52.156;20.788;2024-01-15T10:04:58;9.40;;;5.20;;
38611;SDS011;24368;52.156;20.788;2024-01-15T10:10:00;6.20;;;4.80;;
38611;SDS011;24368;52.156;20.788;2024-01-15T10:15:03;14.00;;;9.30;;
38611;SDS011;24368;52.156;20.788;2024-01-15T10:20:12;6.90;;;5.30;;
38611;SDS011;24368;52.156;20.788;2024-01-15T10:25:14;7.40;;;5.50;;
38611;SDS011;24368;52.156;20.788;2024-01-15T10:30:16;6.90;;;5.00;;
38611;SDS011;24368;52.156;20.788;2024-01-15T10:35:18;9.10;;;6.30;;
38611;SDS011;24368;52.156;20.788;2024-01-15T10:40:23;7.50;;;6.40;;
38611;SDS011;24368;52.156;20.788;2024-01-15T10:45:25;10.60;;;7.60;;
38611;SDS011;24368;52.156;20.788;2024-01-15T10:50:26;7.80;;;5.30;;
38611;SDS011;24368;52.156;20.788;2024-01-15T10:55:30;8.40;;;6.40;;
38611;SDS011;24368;52.156;20.788;2024-01-15T11:00:35;9.70;;;7.10;;
38611;SDS011;24368;52.156;20.788;2024-01-15T11:05:42;9.90;;;6.20;;
38611;SDS011;24368;52.156;20.788;2024-01-15T11:10:50;10.30;;;6.80;;
38611;SDS011;24368;52.156;20.788;2024-01-15T11:26:32;8.40;;;6.40;;
38611;SDS011;24368;52.156;20.788;2024-01-15T11:41:55;9.20;;;6.30;;
38611;SDS011;24368;52.156;20.788;2024-01-15T11:47:05;12.40;;;7.90;;
38611;SDS011;24368;52.156;20.788;2024-01-15T11:52:07;8.70;;;6.90;;
38611;SDS011;24368;52.156;20.788;2024-01-15T11:57:15;14.20;;;9.00;;
38611;SDS011;24368;52.156;20.788;2024-01-15T12:02:23;10.20;;;7.30;;
38611;SDS011;24368;52.156;20.788;2024-01-15T12:07:25;9.40;;;7.40;;
38611;SDS011;24368;52.156;20.788;2024-01-15T12:17:35;11.40;;;8.20;;
38611;SDS011;24368;52.156;20.788;2024-01-15T12:22:40;10.60;;;7.30;;
38611;SDS011;24368;52.156;20.788;2024-01-15T12:27:41;10.40;;;8.20;;
38611;SDS011;24368;52.156;20.788;2024-01-15T12:32:44;11.50;;;7.60;;
38611;SDS011;24368;52.156;20.788;2024-01-15T12:37:47;9.20;;;7.30;;
38611;SDS011;24368;52.156;20.788;2024-01-15T12:42:49;7.80;;;7.00;;
38611;SDS011;24368;52.156;20.788;2024-01-15T12:47:52;9.20;;;7.20;;
38611;SDS011;24368;52.156;20.788;2024-01-15T12:52:54;10.60;;;7.20;;
38611;SDS011;24368;52.156;20.788;2024-01-15T12:57:56;10.50;;;8.50;;
38611;SDS011;24368;52.156;20.788;2024-01-15T13:02:57;11.90;;;8.30;;
38611;SDS011;24368;52.156;20.788;2024-01-15T13:08:00;13.80;;;8.40;;
38611;SDS011;24368;52.156;20.788;2024-01-15T13:13:03;9.00;;;7.00;;
38611;SDS011;24368;52.156;20.788;2024-01-15T13:18:05;11.90;;;8.60;;
38611;SDS011;24368;52.156;20.788;2024-01-15T13:23:07;9.00;;;6.80;;
38611;SDS011;24368;52.156;20.788;2024-01-15T13:28:09;9.50;;;7.60;;
38611;SDS011;24368;52.156;20.788;2024-01-15T13:33:11;15.10;;;10.20;;
38611;SDS011;24368;52.156;20.788;2024-01-15T13:38:13;10.50;;;7.90;;
38611;SDS011;24368;52.156;20.788;2024-01-15T13:43:15;8.80;;;7.10;;
38611;SDS011;24368;52.156;20.788;2024-01-15T13:48:17;14.10;;;8.60;;
38611;SDS011;24368;52.156;20.788;2024-01-15T13:53:19;11.60;;;8.10;;
38611;SDS011;24368;52.156;20.788;2024-01-15T13:58:21;12.50;;;8.00;;
38611;SDS011;24368;52.156;20.788;2024-01-15T14:03:23;9.90;;;7.20;;
38611;SDS011;24368;52.156;20.788;2024-01-15T14:08:24;9.80;;;7.20;;
38611;SDS011;24368;52.156;20.788;2024-01-15T14:13:26;10.40;;;7.50;;
38611;SDS011;24368;52.156;20.788;2024-01-15T14:18:28;11.60;;;7.30;;
38611;SDS011;24368;52.156;20.788;2024-01-15T14:23:30;11.70;;;7.30;;
38611;SDS011;24368;52.156;20.788;2024-01-15T14:28:32;10.80;;;8.20;;
38611;SDS011;24368;52.156;20.788;2024-01-15T14:33:34;8.80;;;6.90;;
38611;SDS011;24368;52.156;20.788;2024-01-15T14:38:36;13.50;;;9.50;;
38611;SDS011;24368;52.156;20.788;2024-01-15T14:43:38;11.70;;;8.00;;
38611;SDS011;24368;52.156;20.788;2024-01-15T14:48:39;12.10;;;8.00;;
38611;SDS011;24368;52.156;20.788;2024-01-15T14:53:41;11.60;;;7.90;;
38611;SDS011;24368;52.156;20.788;2024-01-15T14:58:44;17.10;;;9.90;;
38611;SDS011;24368;52.156;20.788;2024-01-15T15:03:47;11.40;;;8.20;;
38611;SDS011;24368;52.156;20.788;2024-01-15T15:08:49;13.40;;;7.30;;
38611;SDS011;24368;52.156;20.788;2024-01-15T15:13:51;9.50;;;7.20;;
38611;SDS011;24368;52.156;20.788;2024-01-15T15:18:53;10.60;;;7.40;;
38611;SDS011;24368;52.156;20.788;2024-01-15T15:23:56;10.90;;;7.30;;
38611;SDS011;24368;52.156;20.788;2024-01-15T15:28:58;11.30;;;7.00;;
38611;SDS011;24368;52.156;20.788;2024-01-15T15:34:00;10.40;;;7.20;;
38611;SDS011;24368;52.156;20.788;2024-01-15T15:39:01;10.10;;;7.30;;
38611;SDS011;24368;52.156;20.788;2024-01-15T15:44:04;10.40;;;7.60;;
38611;SDS011;24368;52.156;20.788;2024-01-15T15:49:05;8.70;;;7.10;;
38611;SDS011;24368;52.156;20.788;2024-01-15T15:54:08;10.20;;;7.00;;
38611;SDS011;24368;52.156;20.788;2024-01-15T15:59:09;12.40;;;8.40;;
38611;SDS011;24368;52.156;20.788;2024-01-15T16:04:11;9.90;;;7.10;;
38611;SDS011;24368;52.156;20.788;2024-01-15T16:09:13;11.10;;;8.00;;
38611;SDS011;24368;52.156;20.788;2024-01-15T16:14:15;9.60;;;6.60;;
38611;SDS011;24368;52.156;20.788;2024-01-15T16:19:19;9.80;;;6.60;;
38611;SDS011;24368;52.156;20.788;2024-01-15T16:24:21;12.70;;;9.50;;
38611;SDS011;24368;52.156;20.788;2024-01-15T16:29:24;16.60;;;9.10;;
38611;SDS011;24368;52.156;20.788;2024-01-15T16:34:26;24.30;;;12.10;;
38611;SDS011;24368;52.156;20.788;2024-01-15T16:39:28;13.50;;;8.30;;
38611;SDS011;24368;52.156;20.788;2024-01-15T16:44:30;12.90;;;7.10;;
38611;SDS011;24368;52.156;20.788;2024-01-15T16:49:32;11.20;;;7.50;;
38611;SDS011;24368;52.156;20.788;2024-01-15T16:54:34;12.80;;;7.80;;
38611;SDS011;24368;52.156;20.788;2024-01-15T16:59:36;9.20;;;6.70;;
38611;SDS011;24368;52.156;20.788;2024-01-15T17:04:38;12.10;;;8.10;;
38611;SDS011;24368;52.156;20.788;2024-01-15T17:09:40;7.20;;;6.00;;
38611;SDS011;24368;52.156;20.788;2024-01-15T17:14:41;12.00;;;9.30;;
38611;SDS011;24368;52.156;20.788;2024-01-15T17:19:43;10.90;;;7.30;;
38611;SDS011;24368;52.156;20.788;2024-01-15T17:24:45;11.70;;;8.50;;
38611;SDS011;24368;52.156;20.788;2024-01-15T17:29:46;16.70;;;11.40;;
38611;SDS011;24368;52.156;20.788;2024-01-15T17:34:49;15.60;;;9.70;;
38611;SDS011;24368;52.156;20.788;2024-01-15T17:39:51;13.30;;;9.30;;
38611;SDS011;24368;52.156;20.788;2024-01-15T17:44:54;15.20;;;11.00;;
38611;SDS011;24368;52.156;20.788;2024-01-15T17:49:55;11.40;;;9.40;;
38611;SDS011;24368;52.156;20.788;2024-01-15T17:54:57;12.80;;;7.70;;
38611;SDS011;24368;52.156;20.788;2024-01-15T17:59:59;14.00;;;9.20;;
38611;SDS011;24368;52.156;20.788;2024-01-15T18:05:01;12.70;;;8.00;;
38611;SDS011;24368;52.156;20.788;2024-01-15T18:10:03;12.80;;;9.00;;
38611;SDS011;24368;52.156;20.788;2024-01-15T18:15:06;14.80;;;9.00;;
38611;SDS011;24368;52.156;20.788;2024-01-15T18:20:09;14.60;;;9.90;;
38611;SDS011;24368;52.156;20.788;2024-01-15T18:25:12;13.50;;;9.90;;
38611;SDS011;24368;52.156;20.788;2024-01-15T18:30:14;12.10;;;8.60;;
38611;SDS011;24368;52.156;20.788;2024-01-15T18:35:16;9.40;;;5.90;;
38611;SDS011;24368;52.156;20.788;2024-01-15T18:40:18;4.40;;;3.80;;
38611;SDS011;24368;52.156;20.788;2024-01-15T18:45:20;3.30;;;3.00;;
38611;SDS011;24368;52.156;20.788;2024-01-15T18:50:22;4.10;;;2.50;;
38611;SDS011;24368;52.156;20.788;2024-01-15T18:55:23;3.30;;;2.80;;
38611;SDS011;24368;52.156;20.788;2024-01-15T19:00:25;2.70;;;2.50;;
38611;SDS011;24368;52.156;20.788;2024-01-15T19:05:27;3.30;;;2.30;;
38611;SDS011;24368;52.156;20.788;2024-01-15T19:10:29;2.40;;;2.00;;
38611;SDS011;24368;52.156;20.788;2024-01-15T19:15:31;5.70;;;2.40;;
38611;SDS011;24368;52.156;20.788;2024-01-15T19:20:33;6.30;;;2.50;;
38611;SDS011;24368;52.156;20.788;2024-01-15T19:25:35;4.70;;;2.30;;
38611;SDS011;24368;52.156;20.788;2024-01-15T19:30:37;2.70;;;2.40;;
38611;SDS011;24368;52.156;20.788;2024-01-15T19:35:39;2.80;;;1.80;;
38611;SDS011;24368;52.156;20.788;2024-01-15T19:40:41;2.00;;;1.80;;
38611;SDS011;24368;52.156;20.788;2024-01-15T19:45:45;8.90;;;6.20;;
38611;SDS011;24368;52.156;20.788;2024-01-15T19:50:47;2.80;;;0.90;;
38611;SDS011;24368;52.156;20.788;2024-01-15T19:55:48;3.00;;;1.30;;
38611;SDS011;24368;52.156;20.788;2024-01-15T20:00:50;2.80;;;1.80;;
38611;SDS011;24368;52.156;20.788;2024-01-15T20:05:52;3.30;;;1.60;;
38611;SDS011;24368;52.156;20.788;2024-01-15T20:10:53;2.10;;;1.60;;
38611;SDS011;24368;52.156;20.788;2024-01-15T20:15:57;3.30;;;2.40;;
38611;SDS011;24368;52.156;20.788;2024-01-15T20:20:59;1.70;;;1.20;;
38611;SDS011;24368;52.156;20.788;2024-01-15T20:26:02;0.80;;;0.80;;
38611;SDS011;24368;52.156;20.788;2024-01-15T20:31:05;3.30;;;2.10;;
38611;SDS011;24368;52.156;20.788;2024-01-15T20:36:08;2.00;;;1.60;;
38611;SDS011;24368;52.156;20.788;2024-01-15T20:41:10;2.30;;;2.00;;
38611;SDS011;24368;52.156;20.788;2024-01-15T20:46:11;2.90;;;2.20;;
38611;SDS011;24368;52.156;20.788;2024-01-15T20:51:13;4.80;;;2.50;;
38611;SDS011;24368;52.156;20.788;2024-01-15T20:56:16;4.90;;;2.60;;
38611;SDS011;24368;52.156;20.788;2024-01-15T21:01:18;6.00;;;3.40;;
38611;SDS011;24368;52.156;20.788;2024-01-15T21:06:20;6.70;;;3.50;;
38611;SDS011;24368;52.156;20.788;2024-01-15T21:11:22;2.20;;;1.70;;
38611;SDS011;24368;52.156;20.788;2024-01-15T21:16:24;3.70;;;2.10;;
38611;SDS011;24368;52.156;20.788;2024-01-15T21:21:26;2.10;;;1.90;;
38611;SDS011;24368;52.156;20.788;2024-01-15T21:26:28;4.00;;;1.30;;
38611;SDS011;24368;52.156;20.788;2024-01-15T21:31:29;2.80;;;1.50;;
38611;SDS011;24368;52.156;20.788;2024-01-15T21:36:32;2.80;;;1.70;;
38611;SDS011;24368;52.156;20.788;2024-01-15T21:41:34;3.00;;;1.60;;
38611;SDS011;24368;52.156;20.788;2024-01-15T21:46:37;2.60;;;1.70;;
38611;SDS011;24368;52.156;20.788;2024-01-15T21:51:39;4.10;;;2.20;;
38611;SDS011;24368;52.156;20.788;2024-01-15T21:56:40;4.10;;;2.00;;
38611;SDS011;24368;52.156;20.788;2024-01-15T22:01:42;3.10;;;2.10;;
38611;SDS011;24368;52.156;20.788;2024-01-15T22:06:44;3.70;;;2.40;;
38611;SDS011;24368;52.156;20.788;2024-01-15T22:11:46;1.80;;;1.30;;
38611;SDS011;24368;52.156;20.788;2024-01-15T22:16:48;2.30;;;2.10;;
38611;SDS011;24368;52.156;20.788;2024-01-15T22:21:51;2.00;;;1.70;;
38611;SDS011;24368;52.156;20.788;2024-01-15T22:26:53;3.00;;;1.70;;
38611;SDS011;24368;52.156;20.788;2024-01-15T22:31:55;2.10;;;1.20;;
38611;SDS011;24368;52.156;20.788;2024-01-15T22:36:57;0.80;;;0.80;;
38611;SDS011;24368;52.156;20.788;2024-01-15T22:41:59;1.50;;;0.70;;
38611;SDS011;24368;52.156;20.788;2024-01-15T22:47:01;1.10;;;0.70;;
38611;SDS011;24368;52.156;20.788;2024-01-15T22:52:03;0.70;;;0.70;;
38611;SDS011;24368;52.156;20.788;2024-01-15T22:57:05;0.70;;;0.70;;
38611;SDS011;24368;52.156;20.788;2024-01-15T23:02:07;0.80;;;0.80;;
38611;SDS011;24368;52.156;20.788;2024-01-15T23:07:09;1.10;;;0.90;;
38611;SDS011;24368;52.156;20.788;2024-01-15T23:12:11;0.70;;;0.70;;
38611;SDS011;24368;52.156;20.788;2024-01-15T23:17:12;1.40;;;1.30;;
38611;SDS011;24368;52.156;20.788;2024-01-15T23:22:14;1.80;;;1.00;;
38611;SDS011;24368;52.156;20.788;2024-01-15T23:27:17;1.20;;;1.00;;
38611;SDS011;24368;52.156;20.788;2024-01-15T23:32:18;5.40;;;3.30;;
38611;SDS011;24368;52.156;20.788;2024-01-15T23:37:20;1.80;;;1.00;;
38611;SDS011;24368;52.156;20.788;2024-01-15T23:42:22;0.70;;;0.70;;
38611;SDS011;24368;52.156;20.788;2024-01-15T23:47:24;1.40;;;0.70;;
38611;SDS011;24368;52.156;20.788;2024-01-15T23:52:27;1.20;;;0.60;;
38611;SDS011;24368;52.156;20.788;2024-01-15T23:57:29;1.20;;;1.00;;
